createdAt,value
2022-10-16T00:04:46.712Z,19.00
2022-10-16T00:09:49.961Z,18.90
2022-10-16T00:14:54.579Z,18.90
2022-10-16T00:19:57.735Z,18.90
2022-10-16T00:25:00.890Z,18.80
2022-10-16T00:30:06.255Z,18.70
2022-10-16T00:35:09.625Z,18.60
2022-10-16T00:40:13.129Z,18.50
2022-10-16T00:45:17.763Z,18.50
2022-10-16T00:50:29.155Z,18.50
2022-10-16T00:55:32.923Z,18.40
2022-10-16T01:00:37.646Z,18.40
2022-10-16T01:05:56.656Z,18.40
2022-10-16T01:11:04.072Z,18.30
2022-10-16T01:16:16.529Z,18.30
2022-10-16T01:21:24.854Z,18.30
2022-10-16T01:26:44.664Z,18.20
2022-10-16T01:31:52.902Z,18.30
2022-10-16T01:37:00.523Z,18.30
2022-10-16T01:42:07.703Z,18.30
2022-10-16T01:47:15.096Z,18.20
2022-10-16T01:52:22.949Z,18.20
2022-10-16T01:57:28.164Z,18.20
2022-10-16T02:02:33.689Z,18.20
2022-10-16T02:07:36.760Z,18.20
2022-10-16T02:12:43.270Z,18.20
2022-10-16T02:17:47.936Z,18.20
2022-10-16T02:22:53.400Z,18.10
2022-10-16T02:27:59.877Z,18.10
2022-10-16T02:33:08.700Z,18.00
2022-10-16T02:38:12.596Z,17.90
2022-10-16T02:43:15.790Z,17.80
2022-10-16T02:48:20.509Z,17.70
2022-10-16T02:53:23.689Z,17.70
2022-10-16T02:58:26.752Z,17.70
2022-10-16T03:03:31.229Z,17.70
2022-10-16T03:08:34.316Z,17.70
2022-10-16T03:13:37.376Z,17.70
2022-10-16T03:18:42.403Z,17.70
2022-10-16T03:23:45.473Z,17.70
2022-10-16T03:28:48.614Z,17.60
2022-10-16T03:33:53.151Z,17.60
2022-10-16T03:38:56.200Z,17.60
2022-10-16T03:43:59.273Z,17.60
2022-10-16T03:49:06.111Z,17.60
2022-10-16T03:54:12.240Z,17.50
2022-10-16T03:59:15.325Z,17.50
2022-10-16T04:04:19.832Z,17.50
2022-10-16T04:09:23.632Z,17.50
2022-10-16T04:14:26.691Z,17.40
2022-10-16T04:19:31.116Z,17.30
2022-10-16T04:24:34.169Z,17.20
2022-10-16T04:29:37.303Z,17.20
2022-10-16T04:34:42.412Z,17.20
2022-10-16T04:39:45.933Z,17.20
2022-10-16T04:44:49.037Z,17.20
2022-10-16T04:49:53.456Z,17.20
2022-10-16T04:54:57.462Z,17.30
2022-10-16T05:00:00.512Z,17.30
2022-10-16T05:05:05.393Z,17.40
2022-10-16T05:10:08.953Z,17.40
2022-10-16T05:15:12.426Z,17.40
2022-10-16T05:20:16.921Z,17.40
2022-10-16T05:25:20.538Z,17.40
2022-10-16T05:30:23.663Z,17.30
2022-10-16T05:35:28.233Z,17.30
2022-10-16T05:40:31.285Z,17.30
2022-10-16T05:45:34.381Z,17.40
2022-10-16T05:50:39.088Z,17.40
2022-10-16T05:55:42.127Z,17.40
2022-10-16T06:00:45.206Z,17.40
2022-10-16T06:05:49.685Z,17.40
2022-10-16T06:11:03.080Z,17.40
2022-10-16T06:16:07.201Z,17.40
2022-10-16T06:21:14.072Z,17.40
2022-10-16T06:26:19.920Z,17.40
2022-10-16T06:31:23.512Z,17.40
2022-10-16T06:36:28.678Z,17.40
2022-10-16T06:41:32.014Z,17.40
2022-10-16T06:46:35.340Z,17.40
2022-10-16T06:51:43.269Z,17.40
2022-10-16T06:56:46.924Z,17.50
2022-10-16T07:01:50.401Z,17.60
2022-10-16T07:06:54.874Z,17.60
2022-10-16T07:11:57.993Z,17.70
2022-10-16T07:17:01.049Z,17.80
2022-10-16T07:22:05.912Z,17.90
2022-10-16T07:27:08.962Z,17.90
2022-10-16T07:32:12.020Z,18.10
2022-10-16T07:37:16.464Z,18.20
2022-10-16T07:42:21.076Z,18.30
2022-10-16T07:47:24.682Z,18.60
2022-10-16T07:52:29.412Z,18.80
2022-10-16T07:57:32.466Z,19.00
2022-10-16T08:02:35.561Z,19.30
2022-10-16T08:07:40.021Z,19.50
2022-10-16T08:12:43.083Z,19.80
2022-10-16T08:17:46.336Z,20.00
2022-10-16T08:22:50.798Z,20.30
2022-10-16T08:27:53.972Z,20.50
2022-10-16T08:32:57.069Z,20.80
2022-10-16T08:38:01.558Z,20.90
2022-10-16T08:43:23.033Z,21.20
2022-10-16T08:48:32.478Z,21.30
2022-10-16T08:53:45.462Z,21.40
2022-10-16T08:58:49.466Z,21.60
2022-10-16T09:04:15.869Z,21.70
2022-10-16T09:09:40.693Z,21.90
2022-10-16T09:14:57.188Z,22.10
2022-10-16T09:20:18.041Z,22.30
2022-10-16T09:25:23.798Z,22.50
2022-10-16T09:30:31.200Z,22.80
2022-10-16T09:35:39.366Z,23.00
2022-10-16T09:40:44.902Z,23.20
2022-10-16T09:45:59.861Z,23.40
2022-10-16T09:51:05.195Z,23.60
2022-10-16T09:56:14.655Z,23.70
2022-10-16T10:01:17.760Z,23.90
2022-10-16T10:06:27.368Z,24.10
2022-10-16T10:11:52.527Z,24.30
2022-10-16T10:17:17.190Z,24.50
2022-10-16T10:22:27.173Z,24.70
2022-10-16T10:27:41.825Z,24.80
2022-10-16T10:32:54.686Z,24.90
2022-10-16T10:38:07.837Z,25.10
2022-10-16T10:43:24.296Z,25.20
2022-10-16T10:48:52.851Z,25.30
2022-10-16T10:54:08.307Z,25.40
2022-10-16T10:59:48.213Z,25.40
2022-10-16T11:05:16.580Z,25.40
2022-10-16T11:10:23.595Z,25.40
2022-10-16T11:15:32.645Z,25.50
2022-10-16T11:20:40.962Z,25.60
2022-10-16T11:25:46.055Z,25.70
2022-10-16T11:30:56.365Z,25.70
2022-10-16T11:36:06.316Z,25.80
2022-10-16T11:41:19.380Z,25.80
2022-10-16T11:46:26.465Z,25.90
2022-10-16T11:51:37.330Z,25.90
2022-10-16T11:56:42.545Z,25.90
2022-10-16T12:01:52.364Z,25.90
2022-10-16T12:06:59.992Z,25.90
2022-10-16T12:12:03.196Z,25.90
2022-10-16T12:17:28.584Z,25.90
2022-10-16T12:22:35.809Z,25.90
2022-10-16T12:27:40.808Z,26.00
2022-10-16T12:32:47.185Z,25.90
2022-10-16T12:37:51.542Z,26.00
2022-10-16T12:42:54.599Z,26.00
2022-10-16T12:48:00.348Z,25.90
2022-10-16T12:53:05.968Z,26.00
2022-10-16T12:58:31.155Z,25.90
2022-10-16T13:03:55.369Z,26.00
2022-10-16T13:09:22.473Z,26.00
2022-10-16T13:14:53.707Z,26.00
2022-10-16T13:20:08.730Z,26.10
2022-10-16T13:25:25.844Z,26.10
2022-10-16T13:30:31.191Z,26.20
2022-10-16T13:35:37.851Z,26.30
2022-10-16T13:40:51.977Z,26.30
2022-10-16T13:46:00.250Z,26.30
2022-10-16T13:51:14.511Z,26.30
2022-10-16T13:56:19.070Z,26.30
2022-10-16T14:01:28.661Z,26.30
2022-10-16T14:06:38.169Z,26.30
2022-10-16T14:11:48.669Z,26.30
2022-10-16T14:16:52.005Z,26.30
2022-10-16T14:21:56.630Z,26.40
2022-10-16T14:27:00.547Z,26.30
2022-10-16T14:32:05.945Z,26.40
2022-10-16T14:37:17.534Z,26.30
2022-10-16T14:42:24.642Z,26.30
2022-10-16T14:47:29.278Z,26.30
2022-10-16T14:52:34.025Z,26.30
2022-10-16T14:57:39.688Z,26.20
2022-10-16T15:02:44.106Z,26.20
2022-10-16T15:07:50.077Z,26.20
2022-10-16T15:12:53.429Z,26.20
2022-10-16T15:17:58.233Z,26.10
2022-10-16T15:23:03.618Z,26.10
2022-10-16T15:28:07.916Z,26.10
2022-10-16T15:33:16.686Z,26.00
2022-10-16T15:38:23.402Z,25.90
2022-10-16T15:43:26.608Z,25.80
2022-10-16T15:48:30.312Z,25.80
2022-10-16T15:53:35.087Z,25.70
2022-10-16T15:58:38.439Z,25.60
2022-10-16T16:03:42.051Z,25.50
2022-10-16T16:08:46.472Z,25.40
2022-10-16T16:13:49.545Z,25.30
2022-10-16T16:18:56.251Z,25.20
2022-10-16T16:24:00.954Z,25.10
2022-10-16T16:29:05.348Z,24.90
2022-10-16T16:34:08.776Z,24.70
2022-10-16T16:39:13.255Z,24.50
2022-10-16T16:44:17.783Z,24.40
2022-10-16T16:49:20.893Z,24.30
2022-10-16T16:54:25.442Z,24.20
2022-10-16T16:59:28.647Z,24.10
2022-10-16T17:04:31.703Z,23.90
2022-10-16T17:09:36.557Z,23.80
2022-10-16T17:14:39.765Z,23.70
2022-10-16T17:19:42.849Z,23.60
2022-10-16T17:24:51.047Z,23.40
2022-10-16T17:29:54.980Z,23.30
2022-10-16T17:34:58.289Z,23.20
2022-10-16T17:40:02.830Z,23.20
2022-10-16T17:45:06.980Z,23.10
2022-10-16T17:50:13.384Z,23.00
2022-10-16T17:55:24.853Z,22.90
2022-10-16T18:00:30.312Z,22.80
2022-10-16T18:05:33.532Z,22.70
2022-10-16T18:10:38.070Z,22.60
2022-10-16T18:15:41.253Z,22.50
2022-10-16T18:20:44.500Z,22.40
2022-10-16T18:25:55.021Z,22.30
2022-10-16T18:30:58.655Z,22.30
2022-10-16T18:36:03.372Z,22.30
2022-10-16T18:41:07.991Z,22.20
2022-10-16T18:46:13.082Z,22.20
2022-10-16T18:51:18.765Z,22.10
2022-10-16T18:56:24.517Z,22.10
2022-10-16T19:01:29.895Z,22.00
2022-10-16T19:06:35.810Z,22.00
2022-10-16T19:11:41.858Z,21.90
2022-10-16T19:16:45.933Z,21.90
2022-10-16T19:21:55.880Z,21.80
2022-10-16T19:27:00.430Z,21.70
2022-10-16T19:32:06.554Z,21.60
2022-10-16T19:37:11.101Z,21.50
2022-10-16T19:42:15.659Z,21.40
2022-10-16T19:47:20.878Z,21.40
2022-10-16T19:52:26.482Z,21.30
2022-10-16T19:57:33.568Z,21.20
2022-10-16T20:02:37.508Z,21.10
2022-10-16T20:07:40.636Z,21.00
2022-10-16T20:12:45.188Z,20.90
2022-10-16T20:17:48.400Z,20.80
2022-10-16T20:22:51.551Z,20.70
2022-10-16T20:27:56.160Z,20.60
2022-10-16T20:32:59.330Z,20.50
2022-10-16T20:38:02.601Z,20.40
2022-10-16T20:43:08.073Z,20.40
2022-10-16T20:48:12.284Z,20.30
2022-10-16T20:53:15.358Z,20.30
2022-10-16T20:58:19.912Z,20.20
2022-10-16T21:03:23.077Z,20.10
2022-10-16T21:08:26.220Z,20.10
2022-10-16T21:13:30.798Z,20.10
2022-10-16T21:18:34.322Z,20.10
2022-10-16T21:23:37.436Z,20.10
2022-10-16T21:28:41.992Z,20.00
2022-10-16T21:33:45.171Z,20.00
2022-10-16T21:38:48.998Z,19.90
2022-10-16T21:43:54.834Z,19.90
2022-10-16T21:48:58.990Z,19.80
2022-10-16T21:54:02.583Z,19.80
2022-10-16T21:59:07.592Z,19.70
2022-10-16T22:04:11.841Z,19.70
2022-10-16T22:09:16.047Z,19.70
2022-10-16T22:14:21.773Z,19.60
2022-10-16T22:19:24.895Z,19.60
2022-10-16T22:24:30.536Z,19.50
2022-10-16T22:29:35.102Z,19.50
2022-10-16T22:34:38.237Z,19.40
2022-10-16T22:39:41.493Z,19.30
2022-10-16T22:44:45.978Z,19.30
2022-10-16T22:49:49.097Z,19.30
2022-10-16T22:54:52.272Z,19.20
2022-10-16T22:59:56.779Z,19.20
2022-10-16T23:04:59.952Z,19.20
2022-10-16T23:10:03.143Z,19.10
2022-10-16T23:15:08.769Z,19.00
2022-10-16T23:20:12.613Z,18.90
2022-10-16T23:25:15.930Z,18.90
2022-10-16T23:30:20.443Z,18.80
2022-10-16T23:35:25.384Z,18.80
2022-10-16T23:40:28.492Z,18.70
2022-10-16T23:45:32.967Z,18.60
2022-10-16T23:50:36.130Z,18.60
2022-10-16T23:55:39.215Z,18.60
